createdAt,value
2022-07-25T00:00:20.491Z,20.10
2022-07-25T00:01:20.864Z,20.05
2022-07-25T00:02:20.400Z,20.12
2022-07-25T00:03:20.314Z,20.12
2022-07-25T00:04:20.286Z,20.15
2022-07-25T00:05:20.199Z,20.12
2022-07-25T00:06:20.133Z,20.17
2022-07-25T00:07:20.089Z,20.17
2022-07-25T00:08:20.019Z,20.08
2022-07-25T00:09:19.956Z,20.16
2022-07-25T00:10:19.900Z,20.16
2022-07-25T00:11:19.839Z,20.16
2022-07-25T00:12:19.787Z,20.15
2022-07-25T00:13:19.721Z,20.16
2022-07-25T00:14:19.664Z,20.20
2022-07-25T00:15:19.604Z,20.19
2022-07-25T00:16:19.659Z,20.22
2022-07-25T00:17:19.529Z,20.26
2022-07-25T00:18:19.429Z,20.31
2022-07-25T00:19:19.384Z,20.56
2022-07-25T00:20:19.310Z,20.53
2022-07-25T00:21:19.250Z,20.64
2022-07-25T00:22:19.355Z,20.73
2022-07-25T00:23:19.153Z,20.78
2022-07-25T00:24:19.096Z,20.78
2022-07-25T00:25:19.023Z,20.83
2022-07-25T00:26:18.970Z,20.79
2022-07-25T00:27:18.893Z,20.83
2022-07-25T00:28:18.830Z,20.79
2022-07-25T00:29:18.773Z,20.90
2022-07-25T00:30:18.713Z,20.79
2022-07-25T00:31:18.694Z,20.90
2022-07-25T00:32:18.600Z,20.87
2022-07-25T00:33:18.538Z,21.00
2022-07-25T00:34:18.475Z,21.11
2022-07-25T00:35:18.418Z,21.03
2022-07-25T00:36:18.358Z,20.88
2022-07-25T00:37:18.298Z,20.87
2022-07-25T00:38:18.254Z,20.79
2022-07-25T00:39:18.181Z,20.98
2022-07-25T00:40:18.122Z,21.13
2022-07-25T00:41:18.061Z,21.24
2022-07-25T00:42:18.004Z,21.27
2022-07-25T00:43:17.944Z,21.26
2022-07-25T00:44:17.903Z,21.38
2022-07-25T00:45:17.825Z,21.38
2022-07-25T00:46:18.844Z,21.43
2022-07-25T00:47:17.710Z,21.61
2022-07-25T00:48:17.655Z,21.56
2022-07-25T00:49:17.655Z,21.53
2022-07-25T00:50:17.527Z,21.46
2022-07-25T00:51:17.469Z,21.46
2022-07-25T00:52:17.414Z,21.46
2022-07-25T00:53:17.351Z,21.48
2022-07-25T00:54:17.295Z,21.36
2022-07-25T00:55:17.233Z,21.28
2022-07-25T00:56:17.172Z,21.27
2022-07-25T00:57:17.118Z,21.21
2022-07-25T00:58:17.054Z,21.16
2022-07-25T00:59:17.006Z,21.21
2022-07-25T01:00:16.958Z,21.33
2022-07-25T01:01:17.009Z,21.34
2022-07-25T01:02:16.866Z,21.26
2022-07-25T01:03:16.815Z,21.28
2022-07-25T01:04:16.754Z,21.19
2022-07-25T01:05:16.638Z,21.09
2022-07-25T01:06:16.582Z,21.01
2022-07-25T01:07:16.523Z,20.97
2022-07-25T01:08:16.464Z,20.85
2022-07-25T01:09:16.407Z,21.01
2022-07-25T01:10:16.346Z,20.98
2022-07-25T01:11:16.287Z,20.91
2022-07-25T01:12:16.226Z,20.85
2022-07-25T01:13:16.168Z,20.78
2022-07-25T01:14:16.110Z,20.75
2022-07-25T01:15:16.051Z,20.81
2022-07-25T01:16:16.037Z,20.75
2022-07-25T01:17:15.931Z,20.75
2022-07-25T01:18:15.871Z,20.73
2022-07-25T01:19:15.813Z,20.79
2022-07-25T01:20:15.754Z,20.66
2022-07-25T01:21:15.692Z,20.61
2022-07-25T01:22:15.665Z,20.54
2022-07-25T01:23:15.579Z,20.57
2022-07-25T01:24:15.516Z,20.56
2022-07-25T01:25:15.455Z,20.56
2022-07-25T01:26:15.401Z,20.54
2022-07-25T01:27:17.348Z,20.46
2022-07-25T01:28:15.286Z,20.42
2022-07-25T01:29:15.219Z,20.31
2022-07-25T01:30:15.169Z,20.30
2022-07-25T01:31:15.147Z,20.23
2022-07-25T01:32:15.042Z,20.15
2022-07-25T01:33:14.983Z,20.12
2022-07-25T01:34:14.924Z,20.04
2022-07-25T01:35:14.869Z,20.01
2022-07-25T01:36:14.809Z,19.94
2022-07-25T01:37:14.742Z,19.98
2022-07-25T01:38:14.689Z,19.90
2022-07-25T01:39:14.627Z,19.85
2022-07-25T01:40:14.591Z,19.79
2022-07-25T01:41:14.509Z,19.75
2022-07-25T01:42:14.452Z,19.72
2022-07-25T01:43:14.390Z,19.71
2022-07-25T01:44:14.337Z,19.64
2022-07-25T01:45:14.269Z,19.65
2022-07-25T01:46:14.273Z,19.64
2022-07-25T01:47:14.154Z,19.70
2022-07-25T01:48:14.094Z,19.64
2022-07-25T01:49:14.102Z,19.65
2022-07-25T01:50:13.980Z,19.60
2022-07-25T01:51:13.925Z,19.53
2022-07-25T01:52:13.860Z,19.50
2022-07-25T01:53:13.799Z,19.60
2022-07-25T01:54:13.738Z,19.39
2022-07-25T01:55:13.683Z,19.47
2022-07-25T01:56:13.620Z,19.39
2022-07-25T01:57:13.559Z,19.38
2022-07-25T01:58:13.502Z,19.32
2022-07-25T01:59:13.439Z,19.25
2022-07-25T02:00:13.386Z,19.24
2022-07-25T02:01:13.349Z,19.34
2022-07-25T02:02:13.267Z,19.23
2022-07-25T02:03:13.207Z,19.28
2022-07-25T02:04:13.189Z,19.17
2022-07-25T02:05:13.158Z,19.21
2022-07-25T02:06:13.029Z,19.17
2022-07-25T02:07:12.966Z,19.21
2022-07-25T02:08:12.907Z,19.16
2022-07-25T02:09:12.846Z,19.15
2022-07-25T02:10:12.804Z,19.05
2022-07-25T02:11:12.729Z,19.02
2022-07-25T02:12:12.676Z,19.07
2022-07-25T02:13:12.611Z,19.07
2022-07-25T02:14:12.552Z,18.94
2022-07-25T02:15:12.493Z,18.99
2022-07-25T02:16:12.433Z,18.97
2022-07-25T02:17:12.401Z,18.97
2022-07-25T02:18:12.342Z,18.91
2022-07-25T02:19:12.252Z,19.09
2022-07-25T02:20:12.196Z,18.97
2022-07-25T02:21:13.823Z,18.94
2022-07-25T02:22:12.076Z,18.99
2022-07-25T02:23:12.018Z,18.94
2022-07-25T02:24:11.958Z,18.96
2022-07-25T02:25:12.868Z,18.91
2022-07-25T02:26:11.837Z,18.97
2022-07-25T02:27:11.778Z,18.91
2022-07-25T02:28:11.732Z,18.87
2022-07-25T02:29:11.659Z,18.89
2022-07-25T02:30:11.676Z,18.91
2022-07-25T02:31:11.644Z,18.86
2022-07-25T02:32:11.482Z,18.93
2022-07-25T02:33:11.433Z,18.90
2022-07-25T02:34:11.364Z,18.90
2022-07-25T02:35:13.076Z,18.86
2022-07-25T02:36:11.243Z,18.90
2022-07-25T02:37:11.184Z,18.90
2022-07-25T02:38:11.128Z,18.94
2022-07-25T02:39:11.063Z,18.76
2022-07-25T02:40:11.005Z,18.86
2022-07-25T02:41:10.947Z,19.02
2022-07-25T02:42:10.884Z,19.07
2022-07-25T02:43:10.825Z,19.01
2022-07-25T02:44:10.872Z,18.96
2022-07-25T02:45:10.705Z,18.97
2022-07-25T02:46:10.752Z,18.96
2022-07-25T02:47:10.588Z,18.93
2022-07-25T02:48:10.532Z,18.79
2022-07-25T02:49:10.530Z,18.87
2022-07-25T02:50:14.512Z,18.82
2022-07-25T02:51:10.349Z,18.78
2022-07-25T02:52:10.290Z,18.94
2022-07-25T02:53:10.228Z,18.87
2022-07-25T02:54:10.487Z,19.16
2022-07-25T02:55:10.149Z,19.27
2022-07-25T02:56:10.051Z,19.20
2022-07-25T02:57:09.995Z,19.21
2022-07-25T02:58:09.933Z,19.10
2022-07-25T02:59:09.875Z,19.23
2022-07-25T03:00:09.873Z,19.17
2022-07-25T03:01:09.885Z,19.16
2022-07-25T03:02:09.692Z,19.15
2022-07-25T03:03:09.637Z,19.30
2022-07-25T03:04:10.409Z,19.24
2022-07-25T03:05:09.512Z,19.27
2022-07-25T03:06:09.457Z,19.21
2022-07-25T03:07:09.416Z,19.25
2022-07-25T03:08:09.335Z,19.20
2022-07-25T03:09:09.278Z,19.21
2022-07-25T03:10:11.059Z,19.16
2022-07-25T03:11:09.210Z,19.20
2022-07-25T03:12:09.095Z,19.16
2022-07-25T03:13:09.035Z,19.30
2022-07-25T03:14:09.244Z,19.38
2022-07-25T03:15:08.916Z,19.43
2022-07-25T03:16:08.858Z,19.52
2022-07-25T03:17:08.850Z,19.53
2022-07-25T03:18:09.495Z,19.52
2022-07-25T03:19:08.683Z,19.38
2022-07-25T03:20:08.620Z,19.40
2022-07-25T03:21:08.561Z,19.49
2022-07-25T03:22:08.500Z,19.57
2022-07-25T03:23:08.440Z,19.46
2022-07-25T03:24:08.757Z,19.53
2022-07-25T03:25:15.365Z,19.61
2022-07-25T03:26:08.260Z,19.55
2022-07-25T03:27:08.200Z,19.61
2022-07-25T03:28:08.145Z,19.67
2022-07-25T03:29:08.079Z,19.72
2022-07-25T03:30:08.022Z,19.67
2022-07-25T03:31:07.961Z,19.75
2022-07-25T03:32:07.937Z,19.75
2022-07-25T03:33:07.843Z,19.61
2022-07-25T03:34:08.281Z,19.60
2022-07-25T03:35:07.726Z,19.60
2022-07-25T03:36:07.663Z,19.60
2022-07-25T03:37:07.604Z,19.50
2022-07-25T03:38:07.545Z,19.52
2022-07-25T03:39:08.400Z,19.57
2022-07-25T03:40:07.427Z,19.50
2022-07-25T03:41:07.365Z,19.49
2022-07-25T03:42:07.307Z,19.43
2022-07-25T03:43:07.248Z,19.39
2022-07-25T03:44:07.650Z,19.38
2022-07-25T03:45:07.206Z,19.35
2022-07-25T03:46:07.198Z,19.43
2022-07-25T03:47:07.007Z,19.39
2022-07-25T03:48:06.946Z,19.43
2022-07-25T03:49:07.101Z,19.38
2022-07-25T03:50:06.826Z,19.42
2022-07-25T03:51:07.370Z,19.42
2022-07-25T03:52:06.710Z,19.39
2022-07-25T03:53:06.645Z,19.42
2022-07-25T03:54:07.055Z,19.42
2022-07-25T03:55:06.527Z,19.45
2022-07-25T03:56:06.470Z,19.39
2022-07-25T03:57:06.419Z,19.32
2022-07-25T03:58:06.349Z,19.30
2022-07-25T03:59:06.291Z,19.31
2022-07-25T04:00:06.233Z,19.28
2022-07-25T04:01:06.218Z,19.20
2022-07-25T04:02:06.164Z,19.16
2022-07-25T04:03:06.052Z,19.32
2022-07-25T04:04:06.257Z,19.21
2022-07-25T04:05:05.932Z,19.34
2022-07-25T04:06:05.873Z,19.27
2022-07-25T04:07:05.812Z,19.20
2022-07-25T04:08:05.753Z,19.23
2022-07-25T04:09:05.691Z,19.20
2022-07-25T04:10:05.638Z,19.21
2022-07-25T04:11:05.603Z,19.23
2022-07-25T04:12:05.524Z,19.27
2022-07-25T04:13:05.462Z,19.21
2022-07-25T04:14:05.702Z,19.21
2022-07-25T04:15:05.343Z,19.28
2022-07-25T04:16:05.339Z,19.27
2022-07-25T04:17:05.243Z,19.16
2022-07-25T04:18:05.161Z,19.17
2022-07-25T04:19:05.099Z,19.09
2022-07-25T04:20:05.630Z,19.07
2022-07-25T04:21:05.005Z,19.10
2022-07-25T04:22:04.925Z,19.13
2022-07-25T04:23:04.864Z,19.10
2022-07-25T04:24:05.092Z,19.05
2022-07-25T04:25:04.740Z,19.05
2022-07-25T04:26:04.705Z,19.05
2022-07-25T04:27:04.695Z,19.09
2022-07-25T04:28:04.599Z,19.06
2022-07-25T04:29:04.530Z,19.07
2022-07-25T04:30:04.438Z,19.09
2022-07-25T04:31:04.379Z,19.13
2022-07-25T04:32:04.423Z,19.13
2022-07-25T04:33:04.263Z,19.16
2022-07-25T04:34:04.568Z,19.16
2022-07-25T04:35:04.143Z,19.20
2022-07-25T04:36:04.087Z,19.23
2022-07-25T04:37:04.024Z,19.38
2022-07-25T04:38:07.614Z,19.32
2022-07-25T04:39:03.902Z,19.45
2022-07-25T04:40:03.847Z,19.58
2022-07-25T04:41:03.788Z,19.78
2022-07-25T04:42:03.731Z,19.76
2022-07-25T04:43:03.665Z,19.92
2022-07-25T04:44:03.993Z,19.87
2022-07-25T04:45:03.548Z,20.02
2022-07-25T04:46:03.569Z,20.16
2022-07-25T04:47:03.426Z,20.31
2022-07-25T04:48:03.371Z,20.42
2022-07-25T04:49:03.381Z,20.54
2022-07-25T04:50:03.249Z,20.61
2022-07-25T04:51:03.186Z,20.73
2022-07-25T04:52:03.134Z,20.79
2022-07-25T04:53:03.068Z,20.75
2022-07-25T04:54:03.305Z,20.82
2022-07-25T04:55:02.950Z,20.83
2022-07-25T04:56:02.891Z,20.94
2022-07-25T04:57:02.828Z,20.98
2022-07-25T04:58:02.773Z,21.08
2022-07-25T04:59:06.695Z,21.06
2022-07-25T05:00:02.658Z,21.28
2022-07-25T05:01:02.654Z,21.28
2022-07-25T05:02:02.617Z,21.22
2022-07-25T05:03:02.474Z,21.38
2022-07-25T05:04:02.536Z,21.42
2022-07-25T05:05:03.076Z,21.48
2022-07-25T05:06:02.294Z,21.55
2022-07-25T05:07:02.233Z,21.70
2022-07-25T05:08:02.179Z,21.74
2022-07-25T05:09:02.116Z,21.70
2022-07-25T05:10:02.066Z,21.81
2022-07-25T05:11:02.002Z,21.85
2022-07-25T05:12:01.937Z,21.91
2022-07-25T05:13:01.876Z,21.99
2022-07-25T05:14:01.821Z,22.01
2022-07-25T05:15:01.759Z,22.19
2022-07-25T05:16:01.789Z,22.52
2022-07-25T05:17:01.664Z,23.09
2022-07-25T05:18:01.584Z,23.64
2022-07-25T05:19:01.537Z,24.02
2022-07-25T05:20:01.465Z,24.49
2022-07-25T05:21:01.410Z,24.79
2022-07-25T05:22:01.348Z,24.60
2022-07-25T05:23:01.295Z,25.01
2022-07-25T05:24:01.227Z,25.07
2022-07-25T05:25:01.186Z,25.23
2022-07-25T05:26:01.118Z,25.75
2022-07-25T05:27:01.060Z,25.09
2022-07-25T05:28:01.005Z,25.24
2022-07-25T05:29:00.946Z,25.76
2022-07-25T05:30:00.881Z,25.82
2022-07-25T05:31:00.927Z,25.78
2022-07-25T05:32:00.845Z,25.71
2022-07-25T05:33:00.720Z,25.31
2022-07-25T05:34:00.645Z,26.19
2022-07-25T05:35:00.608Z,26.36
2022-07-25T05:36:00.533Z,25.81
2022-07-25T05:37:00.478Z,25.30
2022-07-25T05:38:00.416Z,24.92
2022-07-25T05:39:00.365Z,24.90
2022-07-25T05:40:00.302Z,25.38
2022-07-25T05:41:00.245Z,25.98
2022-07-25T05:42:00.187Z,26.06
2022-07-25T05:43:03.308Z,26.73
2022-07-25T05:44:00.089Z,26.01
2022-07-25T05:45:00.036Z,26.16
2022-07-25T05:45:59.984Z,26.32
2022-07-25T05:46:59.962Z,26.90
2022-07-25T05:47:59.837Z,25.75
2022-07-25T05:48:59.848Z,26.21
2022-07-25T05:49:59.731Z,26.32
2022-07-25T05:50:59.666Z,26.12
2022-07-25T05:51:59.642Z,25.78
2022-07-25T05:52:59.554Z,25.56
2022-07-25T05:53:59.493Z,26.16
2022-07-25T05:54:59.437Z,26.81
2022-07-25T05:55:59.387Z,27.09
2022-07-25T05:56:59.323Z,27.21
2022-07-25T05:57:59.264Z,27.84
2022-07-25T05:58:59.227Z,27.35
2022-07-25T05:59:59.151Z,27.40
2022-07-25T06:00:59.112Z,27.99
2022-07-25T06:01:59.178Z,28.13
2022-07-25T06:02:59.121Z,27.40
2022-07-25T06:03:58.929Z,27.09
2022-07-25T06:04:58.870Z,27.15
2022-07-25T06:05:58.815Z,26.90
2022-07-25T06:06:58.766Z,27.25
2022-07-25T06:07:58.705Z,26.54
2022-07-25T06:08:58.662Z,26.42
2022-07-25T06:09:58.589Z,27.05
2022-07-25T06:10:58.526Z,27.05
2022-07-25T06:12:01.099Z,27.25
2022-07-25T06:12:58.438Z,27.55
2022-07-25T06:13:58.370Z,27.53
2022-07-25T06:14:58.306Z,28.18
2022-07-25T06:15:58.307Z,28.14
2022-07-25T06:16:58.190Z,27.95
2022-07-25T06:17:58.135Z,27.21
2022-07-25T06:18:58.075Z,26.93
2022-07-25T06:19:58.019Z,27.08
2022-07-25T06:20:57.962Z,27.20
2022-07-25T06:21:57.906Z,27.86
2022-07-25T06:22:57.853Z,27.93
2022-07-25T06:23:57.803Z,27.83
2022-07-25T06:24:57.741Z,28.17
2022-07-25T06:25:57.681Z,28.65
2022-07-25T06:26:57.631Z,29.42
2022-07-25T06:27:57.572Z,28.67
2022-07-25T06:28:57.514Z,28.42
2022-07-25T06:29:57.534Z,28.20
2022-07-25T06:30:57.402Z,28.73
2022-07-25T06:31:57.427Z,29.54
2022-07-25T06:32:57.320Z,29.64
2022-07-25T06:33:57.245Z,29.85
2022-07-25T06:34:57.179Z,29.86
2022-07-25T06:35:57.121Z,28.95
2022-07-25T06:36:57.113Z,28.65
2022-07-25T06:37:57.008Z,28.06
2022-07-25T06:38:56.957Z,28.35
2022-07-25T06:39:56.899Z,27.88
2022-07-25T06:40:56.843Z,27.80
2022-07-25T06:41:56.788Z,28.57
2022-07-25T06:42:56.730Z,28.46
2022-07-25T06:43:56.679Z,27.98
2022-07-25T06:44:56.625Z,27.77
2022-07-25T06:45:56.567Z,28.02
2022-07-25T06:46:56.564Z,28.06
2022-07-25T06:47:56.451Z,28.98
2022-07-25T06:48:56.489Z,29.27
2022-07-25T06:49:56.341Z,29.85
2022-07-25T06:50:56.290Z,30.72
2022-07-25T06:51:56.230Z,30.68
2022-07-25T06:52:56.178Z,30.70
2022-07-25T06:53:56.118Z,30.60
2022-07-25T06:54:56.064Z,29.85
2022-07-25T06:55:56.014Z,29.92
2022-07-25T06:56:55.956Z,30.48
2022-07-25T06:57:55.900Z,29.70
2022-07-25T06:58:55.853Z,30.04
2022-07-25T06:59:55.789Z,30.57
2022-07-25T07:00:55.781Z,30.93
2022-07-25T07:01:55.678Z,30.07
2022-07-25T07:02:55.649Z,29.23
2022-07-25T07:03:55.632Z,28.98
2022-07-25T07:04:55.519Z,28.73
2022-07-25T07:05:55.462Z,28.73
2022-07-25T07:06:55.434Z,29.36
2022-07-25T07:07:55.423Z,29.25
2022-07-25T07:08:55.301Z,29.94
2022-07-25T07:09:55.243Z,29.49
2022-07-25T07:10:55.190Z,28.73
2022-07-25T07:11:55.131Z,29.23
2022-07-25T07:12:55.075Z,29.89
2022-07-25T07:13:55.021Z,30.25
2022-07-25T07:14:54.966Z,29.74
2022-07-25T07:15:54.953Z,30.19
2022-07-25T07:16:54.861Z,30.73
2022-07-25T07:17:54.801Z,29.55
2022-07-25T07:18:54.746Z,29.47
2022-07-25T07:19:54.692Z,29.60
2022-07-25T07:20:54.637Z,30.44
2022-07-25T07:21:54.588Z,30.76
2022-07-25T07:22:54.528Z,30.15
2022-07-25T07:23:54.477Z,30.75
2022-07-25T07:24:54.420Z,30.61
2022-07-25T07:25:54.363Z,31.00
2022-07-25T07:26:54.319Z,31.94
2022-07-25T07:27:54.254Z,32.87
2022-07-25T07:28:54.204Z,32.88
2022-07-25T07:29:54.144Z,32.77
2022-07-25T07:31:54.173Z,31.88
2022-07-25T07:32:53.989Z,32.27
2022-07-25T07:33:53.931Z,31.90
2022-07-25T07:34:53.880Z,31.91
2022-07-25T07:35:53.891Z,31.00
2022-07-25T07:36:53.800Z,30.11
2022-07-25T07:37:53.804Z,30.64
2022-07-25T07:38:53.711Z,30.42
2022-07-25T07:39:53.647Z,30.45
2022-07-25T07:40:53.624Z,30.59
2022-07-25T07:41:53.658Z,30.88
2022-07-25T07:42:53.528Z,31.28
2022-07-25T07:43:53.416Z,32.19
2022-07-25T07:44:53.341Z,32.98
2022-07-25T07:45:53.282Z,32.78
2022-07-25T07:46:53.351Z,32.72
2022-07-25T07:47:53.183Z,33.00
2022-07-25T07:48:53.190Z,32.98
2022-07-25T07:49:53.068Z,33.38
2022-07-25T07:50:53.022Z,32.13
2022-07-25T07:51:52.964Z,32.80
2022-07-25T07:52:52.914Z,32.84
2022-07-25T07:53:52.855Z,32.09
2022-07-25T07:54:57.694Z,32.28
2022-07-25T07:55:52.745Z,32.49
2022-07-25T07:56:52.697Z,32.43
2022-07-25T07:57:52.641Z,32.66
2022-07-25T07:58:52.594Z,33.68
2022-07-25T07:59:52.535Z,34.55
2022-07-25T08:00:52.494Z,34.53
2022-07-25T08:01:52.514Z,35.07
2022-07-25T08:02:52.451Z,33.81
2022-07-25T08:03:52.319Z,32.21
2022-07-25T08:04:52.270Z,31.88
2022-07-25T08:05:52.217Z,31.64
2022-07-25T08:06:52.174Z,31.46
2022-07-25T08:07:52.111Z,31.88
2022-07-25T08:08:52.057Z,32.16
2022-07-25T08:09:52.008Z,33.07
2022-07-25T08:10:55.631Z,32.80
2022-07-25T08:11:51.903Z,32.59
2022-07-25T08:12:51.844Z,31.18
2022-07-25T08:13:51.800Z,31.09
2022-07-25T08:14:54.475Z,31.74
2022-07-25T08:15:51.798Z,32.35
2022-07-25T08:16:51.643Z,32.50
2022-07-25T08:17:51.591Z,32.22
2022-07-25T08:18:51.531Z,32.31
2022-07-25T08:19:51.475Z,32.14
2022-07-25T08:20:51.431Z,32.80
2022-07-25T08:21:51.374Z,33.59
2022-07-25T08:22:56.398Z,34.00
2022-07-25T08:23:51.277Z,33.63
2022-07-25T08:24:51.216Z,34.05
2022-07-25T08:25:51.168Z,34.67
2022-07-25T08:26:51.108Z,35.03
2022-07-25T08:27:51.066Z,34.34
2022-07-25T08:29:04.897Z,34.67
2022-07-25T08:29:50.975Z,33.35
2022-07-25T08:30:50.928Z,31.97
2022-07-25T08:31:50.992Z,32.76
2022-07-25T08:32:50.793Z,33.35
2022-07-25T08:33:50.746Z,32.84
2022-07-25T08:34:50.688Z,32.96
2022-07-25T08:35:50.635Z,32.95
2022-07-25T08:36:50.586Z,32.98
2022-07-25T08:37:50.532Z,32.90
2022-07-25T08:38:50.478Z,33.43
2022-07-25T08:39:50.426Z,34.36
2022-07-25T08:40:50.380Z,35.00
2022-07-25T08:41:50.319Z,35.24
2022-07-25T08:42:50.273Z,34.72
2022-07-25T08:43:50.214Z,33.40
2022-07-25T08:44:50.165Z,33.68
2022-07-25T08:45:50.122Z,34.19
2022-07-25T08:46:50.149Z,34.28
2022-07-25T08:47:50.012Z,34.27
2022-07-25T08:48:50.020Z,34.40
2022-07-25T08:49:49.906Z,34.98
2022-07-25T08:50:49.871Z,35.29
2022-07-25T08:51:51.080Z,35.24
2022-07-25T08:52:49.754Z,35.69
2022-07-25T08:53:49.702Z,35.91
2022-07-25T08:54:49.647Z,36.06
2022-07-25T08:55:49.649Z,36.16
2022-07-25T08:56:49.626Z,35.02
2022-07-25T08:57:49.626Z,34.00
2022-07-25T08:58:49.697Z,33.33
2022-07-25T08:59:49.409Z,33.22
2022-07-25T09:00:49.479Z,32.77
2022-07-25T09:01:49.535Z,32.44
2022-07-25T09:02:51.156Z,31.69
2022-07-25T09:03:49.254Z,32.17
2022-07-25T09:04:49.163Z,32.77
2022-07-25T09:05:49.109Z,33.18
2022-07-25T09:06:49.072Z,33.00
2022-07-25T09:07:49.401Z,33.57
2022-07-25T09:08:49.049Z,34.30
2022-07-25T09:09:48.920Z,34.50
2022-07-25T09:10:48.828Z,34.03
2022-07-25T09:11:48.896Z,34.16
2022-07-25T09:12:48.834Z,35.02
2022-07-25T09:13:48.743Z,35.68
2022-07-25T09:14:48.647Z,35.07
2022-07-25T09:15:49.587Z,35.34
2022-07-25T09:16:49.752Z,36.11
2022-07-25T09:17:49.850Z,36.15
2022-07-25T09:18:48.467Z,35.91
2022-07-25T09:19:48.616Z,35.22
2022-07-25T09:20:48.440Z,35.03
2022-07-25T09:21:50.135Z,34.84
2022-07-25T09:22:48.250Z,35.02
2022-07-25T09:23:48.255Z,34.63
2022-07-25T09:24:48.159Z,34.56
2022-07-25T09:25:48.097Z,34.09
2022-07-25T09:26:48.067Z,34.28
2022-07-25T09:27:48.007Z,34.65
2022-07-25T09:28:47.978Z,35.28
2022-07-25T09:29:47.882Z,35.21
2022-07-25T09:30:47.950Z,35.09
2022-07-25T09:31:47.858Z,35.56
2022-07-25T09:32:47.732Z,35.31
2022-07-25T09:33:47.731Z,35.02
2022-07-25T09:34:47.644Z,35.50
2022-07-25T09:35:47.617Z,34.88
2022-07-25T09:36:47.548Z,34.86
2022-07-25T09:37:47.520Z,35.61
2022-07-25T09:38:47.429Z,35.80
2022-07-25T09:39:48.493Z,36.48
2022-07-25T09:40:47.334Z,36.96
2022-07-25T09:41:47.274Z,37.47
2022-07-25T09:42:47.244Z,35.74
2022-07-25T09:43:47.180Z,34.72
2022-07-25T09:44:47.184Z,34.67
2022-07-25T09:45:47.090Z,35.17
2022-07-25T09:46:47.098Z,35.84
2022-07-25T09:47:46.936Z,36.00
2022-07-25T09:48:47.000Z,35.27
2022-07-25T09:49:46.848Z,35.17
2022-07-25T09:50:47.328Z,35.37
2022-07-25T09:51:46.784Z,35.56
2022-07-25T09:52:47.033Z,35.68
2022-07-25T09:53:46.734Z,35.52
2022-07-25T09:54:46.634Z,35.69
2022-07-25T09:55:46.604Z,35.83
2022-07-25T09:56:46.758Z,35.96
2022-07-25T09:57:46.514Z,35.31
2022-07-25T09:58:46.461Z,34.27
2022-07-25T09:59:46.388Z,34.75
2022-07-25T10:00:46.326Z,35.12
2022-07-25T10:01:46.334Z,34.55
2022-07-25T10:02:46.312Z,35.06
2022-07-25T10:03:46.182Z,35.22
2022-07-25T10:04:46.146Z,35.12
2022-07-25T10:05:46.090Z,35.05
2022-07-25T10:06:46.057Z,34.56
2022-07-25T10:07:45.960Z,34.78
2022-07-25T10:08:46.215Z,34.18
2022-07-25T10:09:45.872Z,34.15
2022-07-25T10:10:45.805Z,34.37
2022-07-25T10:11:45.816Z,34.78
2022-07-25T10:12:45.716Z,34.98
2022-07-25T10:13:45.689Z,35.49
2022-07-25T10:14:45.634Z,36.13
2022-07-25T10:15:45.600Z,36.65
2022-07-25T10:16:46.228Z,36.44
2022-07-25T10:17:45.543Z,36.22
2022-07-25T10:18:45.412Z,35.71
2022-07-25T10:19:50.769Z,35.96
2022-07-25T10:20:45.667Z,36.13
2022-07-25T10:21:45.323Z,36.48
2022-07-25T10:22:59.749Z,36.22
2022-07-25T10:23:47.325Z,35.47
2022-07-25T10:24:45.072Z,35.31
2022-07-25T10:25:48.951Z,35.73
2022-07-25T10:26:45.068Z,36.48
2022-07-25T10:27:44.957Z,37.02
2022-07-25T10:28:44.863Z,37.09
2022-07-25T10:29:44.906Z,37.35
2022-07-25T10:30:44.898Z,37.45
2022-07-25T10:31:49.771Z,37.59
2022-07-25T10:32:44.711Z,37.93
2022-07-25T10:33:44.681Z,37.85
2022-07-25T10:34:44.590Z,38.03
2022-07-25T10:35:44.741Z,38.12
2022-07-25T10:36:45.906Z,36.43
2022-07-25T10:37:48.871Z,36.50
2022-07-25T10:38:44.534Z,36.93
2022-07-25T10:39:44.412Z,37.30
2022-07-25T10:40:44.321Z,37.82
2022-07-25T10:41:44.223Z,37.49
2022-07-25T10:42:44.225Z,36.57
2022-07-25T10:43:48.253Z,36.75
2022-07-25T10:44:44.065Z,37.25
2022-07-25T10:45:44.128Z,37.69
2022-07-25T10:46:43.940Z,37.68
2022-07-25T10:47:43.984Z,37.27
2022-07-25T10:48:43.927Z,36.15
2022-07-25T10:50:13.587Z,36.03
2022-07-25T10:50:55.388Z,36.08
2022-07-25T10:51:43.766Z,36.25
2022-07-25T10:52:45.011Z,35.92
2022-07-25T10:53:43.984Z,35.95
2022-07-25T10:54:43.588Z,36.15
2022-07-25T10:55:43.518Z,36.56
2022-07-25T10:56:43.591Z,37.09
2022-07-25T10:58:07.880Z,37.63
2022-07-25T10:58:43.538Z,37.80
2022-07-25T10:59:45.797Z,38.14
2022-07-25T11:00:43.260Z,38.50
2022-07-25T11:01:43.332Z,38.62
2022-07-25T11:02:43.382Z,38.84
2022-07-25T11:03:43.152Z,38.92
2022-07-25T11:04:43.065Z,39.01
2022-07-25T11:05:43.033Z,38.63
2022-07-25T11:06:43.033Z,37.99
2022-07-25T11:07:58.592Z,37.66
2022-07-25T11:08:42.946Z,36.57
2022-07-25T11:09:42.786Z,35.95
2022-07-25T11:10:42.895Z,35.84
2022-07-25T11:11:42.898Z,36.18
2022-07-25T11:12:42.704Z,36.43
2022-07-25T11:13:42.603Z,36.87
2022-07-25T11:14:42.575Z,36.74
2022-07-25T11:15:42.509Z,36.90
2022-07-25T11:16:42.525Z,37.01
2022-07-25T11:17:42.384Z,36.94
2022-07-25T11:18:42.391Z,37.08
2022-07-25T11:19:42.328Z,37.20
2022-07-25T11:20:42.308Z,37.35
2022-07-25T11:21:42.211Z,37.60
2022-07-25T11:22:42.314Z,36.77
2022-07-25T11:23:42.119Z,36.60
2022-07-25T11:24:42.120Z,36.57
2022-07-25T11:25:42.022Z,36.59
2022-07-25T11:26:41.966Z,36.68
2022-07-25T11:27:41.934Z,36.31
2022-07-25T11:28:42.291Z,36.13
2022-07-25T11:29:41.898Z,36.18
2022-07-25T11:30:41.751Z,36.05
2022-07-25T11:31:41.811Z,36.05
2022-07-25T11:32:41.659Z,35.96
2022-07-25T11:33:41.595Z,36.22
2022-07-25T11:34:41.678Z,36.64
2022-07-25T11:35:41.523Z,36.65
2022-07-25T11:36:41.475Z,36.59
2022-07-25T11:37:41.413Z,36.59
2022-07-25T11:38:41.488Z,36.89
2022-07-25T11:39:41.712Z,37.31
2022-07-25T11:40:41.398Z,36.71
2022-07-25T11:41:41.198Z,36.67
2022-07-25T11:42:41.204Z,36.72
2022-07-25T11:43:41.107Z,36.69
2022-07-25T11:44:45.646Z,36.78
2022-07-25T11:45:41.090Z,37.06
2022-07-25T11:46:40.959Z,37.23
2022-07-25T11:47:40.931Z,37.08
2022-07-25T11:48:40.958Z,36.91
2022-07-25T11:49:40.772Z,36.78
2022-07-25T11:50:40.755Z,36.46
2022-07-25T11:51:40.685Z,36.56
2022-07-25T11:52:40.652Z,36.34
2022-07-25T11:53:40.590Z,36.22
2022-07-25T11:54:40.560Z,36.38
2022-07-25T11:55:40.498Z,36.16
2022-07-25T11:56:42.945Z,35.98
2022-07-25T11:57:40.402Z,36.23
2022-07-25T11:58:40.303Z,35.31
2022-07-25T11:59:40.284Z,35.13
2022-07-25T12:00:40.224Z,34.95
2022-07-25T12:01:40.196Z,34.71
2022-07-25T12:02:40.358Z,34.38
2022-07-25T12:03:40.184Z,34.45
2022-07-25T12:04:40.007Z,34.49
2022-07-25T12:05:39.944Z,34.72
2022-07-25T12:06:39.919Z,34.80
2022-07-25T12:07:39.854Z,35.06
2022-07-25T12:08:39.828Z,35.21
2022-07-25T12:09:39.764Z,35.27
2022-07-25T12:10:39.737Z,35.12
2022-07-25T12:11:39.745Z,35.00
2022-07-25T12:12:39.575Z,35.12
2022-07-25T12:13:39.605Z,35.18
2022-07-25T12:14:39.489Z,35.10
2022-07-25T12:15:39.463Z,35.00
2022-07-25T12:16:39.464Z,34.98
2022-07-25T12:17:39.375Z,34.95
2022-07-25T12:18:39.274Z,34.76
2022-07-25T12:19:39.214Z,34.94
2022-07-25T12:20:39.185Z,34.87
2022-07-25T12:21:39.123Z,34.76
2022-07-25T12:22:39.094Z,34.69
2022-07-25T12:23:38.998Z,34.58
2022-07-25T12:24:39.005Z,34.56
2022-07-25T12:25:38.908Z,34.78
2022-07-25T12:26:38.846Z,34.86
2022-07-25T12:27:38.823Z,34.76
2022-07-25T12:28:38.754Z,34.75
2022-07-25T12:29:38.728Z,34.71
2022-07-25T12:30:38.710Z,34.75
2022-07-25T12:31:38.655Z,34.78
2022-07-25T12:32:38.550Z,35.00
2022-07-25T12:33:38.546Z,35.02
2022-07-25T12:34:38.414Z,35.05
2022-07-25T12:35:38.390Z,35.36
2022-07-25T12:36:38.361Z,35.29
2022-07-25T12:37:38.299Z,35.37
2022-07-25T12:38:38.203Z,35.28
2022-07-25T12:39:38.175Z,35.22
2022-07-25T12:40:38.076Z,35.12
2022-07-25T12:41:38.085Z,35.10
2022-07-25T12:42:37.988Z,34.91
2022-07-25T12:43:37.993Z,34.78
2022-07-25T12:44:37.898Z,34.81
2022-07-25T12:45:37.858Z,34.81
2022-07-25T12:46:37.808Z,34.76
2022-07-25T12:47:37.747Z,34.99
2022-07-25T12:48:37.761Z,34.81
2022-07-25T12:49:37.622Z,34.65
2022-07-25T12:50:37.639Z,34.53
2022-07-25T12:51:37.531Z,34.99
2022-07-25T12:52:37.470Z,35.34